Terminal Aerodrome Forecast
Issued by NWS New Orleans/Baton Rouge, LA

Home | Current Version | Previous Version | Text Only | Print | Product List | Glossary On
Versions: 1 2 3 4 5 6 7 8 9 10 11 12 13 14 15 16 17 18 19 20 21 22 23 24 25 26 27 28
000
FTUS44 KLIX 201720
TAFNEW
TAF
KNEW 201720Z 2018/2118 35005KT P6SM FEW035
     FM202200 11005KT P6SM FEW050
     FM210100 18007KT P6SM FEW045
     FM210400 21010KT P6SM FEW030
     FM210900 27008KT P6SM FEW025
     FM211500 32004KT P6SM FEW035=

USA.gov is the U.S. government's official web portal to all federal, state and local government web resources and services.